Time;durP1;ratioP1;P1;durP2;ratioP2;P2;SDS_P1;SDS_P2;PMS_P1;PMS_P2;Temp;Humidity;BMP_temperature;BMP_pressure;BME280_temperature;BME280_humidity;BME280_pressure;Samples;Min_cycle;Max_cycle;Signal;HPM_P1;HPM_P2
2022/10/08 00:01:02;;;;;;;;;;;9.60;99.90;;;;;;4228229;28;19920;-56
2022/10/08 00:03:03;;;;;;;;;;;9.60;99.90;;;;;;4229512;28;19965;-59
2022/10/08 00:05:04;;;;;;;;;;;9.50;99.90;;;;;;4228338;28;19916;-57
2022/10/08 00:07:05;;;;;;;;;;;9.50;99.90;;;;;;4229827;27;20369;-57
2022/10/08 00:09:06;;;;;;;;;;;9.50;99.90;;;;;;4227212;28;19911;-59
2022/10/08 00:11:08;;;;;;;;;;;9.40;99.90;;;;;;4229636;28;19993;-59
2022/10/08 00:13:09;;;;;;;;;;;9.40;99.90;;;;;;4228258;28;20314;-57
2022/10/08 00:15:10;;;;;;;;;;;9.40;99.90;;;;;;4229373;28;19923;-59
2022/10/08 00:17:11;;;;;;;;;;;9.40;99.90;;;;;;4226909;28;19908;-58
2022/10/08 00:19:13;;;;;;;;;;;9.40;99.90;;;;;;4229044;28;20353;-60
2022/10/08 00:21:19;;;;;;;;;;;9.40;99.90;;;;;;4228036;28;19912;-59
2022/10/08 00:23:20;;;;;;;;;;;9.30;99.90;;;;;;4228875;28;19957;-60
2022/10/08 00:25:21;;;;;;;;;;;9.30;99.90;;;;;;4228387;28;19920;-60
2022/10/08 00:27:22;;;;;;;;;;;9.30;99.90;;;;;;4228448;28;19933;-58
2022/10/08 00:29:23;;;;;;;;;;;9.30;99.90;;;;;;4228895;28;20611;-59
2022/10/08 00:31:31;;;;;;;;;;;9.30;99.90;;;;;;4243376;27;19911;-59
2022/10/08 00:33:34;;;;;;;;;;;9.20;99.90;;;;;;4228539;28;19957;-58
2022/10/08 00:35:39;;;;;;;;;;;9.20;99.90;;;;;;4226897;28;19912;-59
2022/10/08 00:37:40;;;;;;;;;;;9.20;99.90;;;;;;4228944;28;19915;-59
2022/10/08 00:39:41;;;;;;;;;;;9.20;99.90;;;;;;4227922;28;20261;-60
2022/10/08 00:41:43;;;;;;;;;;;9.10;99.90;;;;;;4229011;28;19918;-58
2022/10/08 00:43:54;;;;;;;;;;;9.10;99.90;;;;;;4228048;28;20330;-60
2022/10/08 00:45:55;;;;;;;;;;;9.10;99.90;;;;;;4229155;28;19916;-59
2022/10/08 00:47:57;;;;;;;;;;;9.10;99.90;;;;;;4227954;27;19920;-58
2022/10/08 00:49:58;;;;;;;;;;;9.10;99.90;;;;;;4228983;28;19908;-61
2022/10/08 00:51:59;;;;;;;;;;;9.10;99.90;;;;;;4227678;28;19908;-60
2022/10/08 00:54:01;;;;;;;;;;;9.10;99.90;;;;;;4229099;28;20330;-59
2022/10/08 00:56:03;;;;;;;;;;;9.00;99.90;;;;;;4227813;28;19957;-60
2022/10/08 00:58:07;;;;;;;;;;;9.00;99.90;;;;;;4228382;28;19957;-59
2022/10/08 01:00:16;;;;;;;;;;;9.00;99.90;;;;;;4228020;28;19919;-59
2022/10/08 01:02:18;;;;;;;;;;;9.00;99.90;;;;;;4228561;28;19907;-59
2022/10/08 01:04:19;;;;;;;;;;;8.90;99.90;;;;;;4227709;28;19937;-55
2022/10/08 01:06:26;;;;;;;;;;;8.90;99.90;;;;;;4227301;28;19934;-59
2022/10/08 01:08:32;;;;;;;;;;;8.90;99.90;;;;;;4228185;28;19933;-59
2022/10/08 01:10:37;;;;;;;;;;;8.90;99.90;;;;;;4228241;28;19968;-58
2022/10/08 01:12:52;;;;;;;;;;;8.90;99.90;;;;;;4228560;28;19992;-56
2022/10/08 01:15:01;;;;;;;;;;;8.90;99.90;;;;;;4228016;28;19907;-59
2022/10/08 01:17:08;;;;;;;;;;;8.90;99.90;;;;;;4228224;28;19912;-59
2022/10/08 01:19:24;;;;;;;;;;;8.90;99.90;;;;;;4227738;28;19912;-60
2022/10/08 01:21:36;;;;;;;;;;;8.90;99.90;;;;;;4227635;28;20360;-59
2022/10/08 01:23:40;;;;;;;;;;;8.90;99.90;;;;;;4227632;28;19984;-60
2022/10/08 01:25:40;;;;;;;;;;;8.90;99.90;;;;;;4228200;28;20388;-59
2022/10/08 01:27:44;;;;;;;;;;;8.80;99.90;;;;;;4229157;28;19918;-59
2022/10/08 01:29:48;;;;;;;;;;;8.90;99.90;;;;;;4231903;28;19976;-59
2022/10/08 01:31:53;;;;;;;;;;;8.80;99.90;;;;;;4230554;28;19954;-59
2022/10/08 01:34:00;;;;;;;;;;;8.90;99.90;;;;;;4231820;28;19911;-59
2022/10/08 01:36:03;;;;;;;;;;;8.90;99.90;;;;;;4227974;28;19924;-59
2022/10/08 01:38:05;;;;;;;;;;;8.80;99.90;;;;;;4231831;28;19965;-58
2022/10/08 01:40:15;;;;;;;;;;;8.80;99.90;;;;;;4230715;28;19911;-59
2022/10/08 01:42:19;;;;;;;;;;;8.80;99.90;;;;;;4232003;28;19912;-58
2022/10/08 01:44:20;;;;;;;;;;;8.80;99.90;;;;;;4230733;28;20356;-58
2022/10/08 01:46:26;;;;;;;;;;;8.80;99.90;;;;;;4231870;28;19908;-59
2022/10/08 01:48:31;;;;;;;;;;;8.80;99.90;;;;;;4230549;28;19952;-59
2022/10/08 01:50:37;;;;;;;;;;;8.80;99.90;;;;;;4231743;28;20306;-58
2022/10/08 01:52:46;;;;;;;;;;;8.80;99.90;;;;;;4230514;28;19908;-58
2022/10/08 01:54:50;;;;;;;;;;;8.80;99.90;;;;;;4231595;28;19908;-59
2022/10/08 01:56:52;;;;;;;;;;;8.70;99.90;;;;;;4229387;27;19953;-59
2022/10/08 01:59:05;;;;;;;;;;;8.70;99.90;;;;;;4231593;28;20313;-59
2022/10/08 02:01:09;;;;;;;;;;;8.70;99.90;;;;;;4230155;28;19931;-59
2022/10/08 02:03:10;;;;;;;;;;;8.70;99.90;;;;;;4231034;28;19912;-59
2022/10/08 02:05:11;;;;;;;;;;;8.60;99.90;;;;;;4230300;28;19927;-59
2022/10/08 02:07:17;;;;;;;;;;;8.60;99.90;;;;;;4231138;28;19908;-60
2022/10/08 02:09:17;;;;;;;;;;;8.60;99.90;;;;;;4230460;28;19908;-58
2022/10/08 02:11:19;;;;;;;;;;;8.60;99.90;;;;;;4231267;28;20360;-60
2022/10/08 02:13:20;;;;;;;;;;;8.60;99.90;;;;;;4230793;28;19934;-59
2022/10/08 02:15:21;;;;;;;;;;;8.50;99.90;;;;;;4228903;28;19916;-60
2022/10/08 02:17:34;;;;;;;;;;;8.50;99.90;;;;;;4230555;28;19915;-58
2022/10/08 02:19:43;;;;;;;;;;;8.40;99.90;;;;;;4229860;28;19912;-58
2022/10/08 02:21:44;;;;;;;;;;;8.50;99.90;;;;;;4230528;28;20383;-58
2022/10/08 02:24:08;;;;;;;;;;;8.50;99.90;;;;;;4229906;28;20260;-58
2022/10/08 02:26:12;;;;;;;;;;;8.40;99.90;;;;;;4230302;28;20215;-57
2022/10/08 02:28:16;;;;;;;;;;;8.40;99.90;;;;;;4230129;28;20368;-59
2022/10/08 02:30:17;;;;;;;;;;;8.40;99.90;;;;;;4230922;28;19908;-57
2022/10/08 02:32:24;;;;;;;;;;;8.40;99.90;;;;;;4229815;28;19908;-58
2022/10/08 02:34:25;;;;;;;;;;;8.30;99.90;;;;;;4230782;28;20357;-59
2022/10/08 02:36:30;;;;;;;;;;;8.20;99.90;;;;;;4228770;28;19916;-56
2022/10/08 02:38:33;;;;;;;;;;;8.20;99.90;;;;;;4229385;28;19916;-59
2022/10/08 02:40:35;;;;;;;;;;;8.20;99.90;;;;;;4228832;28;19964;-59
2022/10/08 02:42:39;;;;;;;;;;;8.20;99.90;;;;;;4231369;27;19915;-59
2022/10/08 02:44:42;;;;;;;;;;;8.20;99.90;;;;;;4229516;28;19972;-57
2022/10/08 02:46:44;;;;;;;;;;;8.20;99.90;;;;;;4230730;28;20388;-60
2022/10/08 02:49:05;;;;;;;;;;;8.10;99.90;;;;;;4229348;28;19908;-61
2022/10/08 02:51:09;;;;;;;;;;;8.10;99.90;;;;;;4227777;28;19916;-58
2022/10/08 02:53:13;;;;;;;;;;;8.10;99.90;;;;;;4229835;27;19915;-59
2022/10/08 02:55:26;;;;;;;;;;;8.10;99.90;;;;;;4230722;28;19957;-60
2022/10/08 02:57:38;;;;;;;;;;;8.00;99.90;;;;;;4229388;28;19912;-59
2022/10/08 02:59:39;;;;;;;;;;;8.00;99.90;;;;;;4230092;28;21163;-58
2022/10/08 03:01:45;;;;;;;;;;;7.90;99.90;;;;;;4229373;28;19911;-59
2022/10/08 03:03:47;;;;;;;;;;;7.80;99.90;;;;;;4230455;28;19911;-59
2022/10/08 03:05:51;;;;;;;;;;;7.80;99.90;;;;;;4229238;28;19949;-59
2022/10/08 03:07:53;;;;;;;;;;;7.80;99.90;;;;;;4230242;27;19912;-59
2022/10/08 03:09:55;;;;;;;;;;;7.70;99.90;;;;;;4229350;28;19957;-56
2022/10/08 03:11:56;;;;;;;;;;;7.60;99.90;;;;;;4230286;28;19916;-59
2022/10/08 03:14:00;;;;;;;;;;;7.60;99.90;;;;;;4229592;28;19908;-57
2022/10/08 03:16:04;;;;;;;;;;;7.60;99.90;;;;;;4228917;28;19940;-60
2022/10/08 03:18:07;;;;;;;;;;;7.60;99.90;;;;;;4228652;28;19968;-57
2022/10/08 03:20:09;;;;;;;;;;;7.60;99.90;;;;;;4228692;27;19965;-58
2022/10/08 03:22:10;;;;;;;;;;;7.60;99.90;;;;;;4229993;28;19916;-58
2022/10/08 03:24:12;;;;;;;;;;;7.60;99.90;;;;;;4228954;28;20036;-58
2022/10/08 03:26:15;;;;;;;;;;;7.50;99.90;;;;;;4229633;28;20360;-57
2022/10/08 03:28:16;;;;;;;;;;;7.50;99.90;;;;;;4228922;28;20314;-59
2022/10/08 03:30:17;;;;;;;;;;;7.50;99.90;;;;;;4230019;28;19908;-58
2022/10/08 03:32:18;;;;;;;;;;;7.50;99.90;;;;;;4229065;28;19908;-59
2022/10/08 03:34:19;;;;;;;;;;;7.40;99.90;;;;;;4229921;28;20283;-59
2022/10/08 03:36:21;;;;;;;;;;;7.40;99.90;;;;;;4228754;28;19912;-59
2022/10/08 03:38:22;;;;;;;;;;;7.40;99.90;;;;;;4227093;28;20449;-60
2022/10/08 03:40:23;;;;;;;;;;;7.30;99.90;;;;;;4228791;28;19923;-57
2022/10/08 03:42:23;;;;;;;;;;;7.30;99.90;;;;;;4230011;28;20320;-60
2022/10/08 03:44:24;;;;;;;;;;;7.20;99.90;;;;;;4228933;28;20322;-59
2022/10/08 03:46:26;;;;;;;;;;;7.20;99.90;;;;;;4229185;28;19919;-59
2022/10/08 03:48:27;;;;;;;;;;;7.20;99.90;;;;;;4228925;28;19985;-57
2022/10/08 03:50:28;;;;;;;;;;;7.20;99.90;;;;;;4228093;28;19911;-58
2022/10/08 03:52:29;;;;;;;;;;;7.20;99.90;;;;;;4229021;28;19934;-57
2022/10/08 03:54:32;;;;;;;;;;;7.10;99.90;;;;;;4228311;28;19938;-57
2022/10/08 03:56:33;;;;;;;;;;;7.00;99.90;;;;;;4244504;27;19907;-57
2022/10/08 03:58:34;;;;;;;;;;;6.90;99.90;;;;;;4228429;28;19994;-58
2022/10/08 04:00:35;;;;;;;;;;;6.80;99.90;;;;;;4229050;28;20024;-59
2022/10/08 04:02:36;;;;;;;;;;;6.70;99.90;;;;;;4228127;28;19916;-58
2022/10/08 04:04:37;;;;;;;;;;;6.50;99.90;;;;;;4229707;27;19908;-58
2022/10/08 04:06:38;;;;;;;;;;;6.40;99.90;;;;;;4226771;27;19920;-59
2022/10/08 04:08:39;;;;;;;;;;;6.40;99.90;;;;;;4229683;27;20287;-59
2022/10/08 04:10:40;;;;;;;;;;;6.40;99.90;;;;;;4227779;28;20318;-60
2022/10/08 04:12:41;;;;;;;;;;;6.30;99.90;;;;;;4229270;28;19928;-57
2022/10/08 04:14:42;;;;;;;;;;;6.30;99.90;;;;;;4228387;28;19973;-59
2022/10/08 04:16:43;;;;;;;;;;;6.30;99.90;;;;;;4228896;27;19977;-58
2022/10/08 04:18:45;;;;;;;;;;;6.30;99.90;;;;;;4228505;28;19918;-57
2022/10/08 04:20:46;;;;;;;;;;;6.30;99.90;;;;;;4227756;28;19965;-58
2022/10/08 04:22:47;;;;;;;;;;;6.20;99.90;;;;;;4228658;28;20367;-58
2022/10/08 04:24:48;;;;;;;;;;;6.20;99.90;;;;;;4227970;27;19969;-58
2022/10/08 04:26:49;;;;;;;;;;;6.20;99.90;;;;;;4229204;28;19908;-59
2022/10/08 04:28:50;;;;;;;;;;;6.10;99.90;;;;;;4227769;28;20018;-59
2022/10/08 04:30:58;;;;;;;;;;;6.10;99.90;;;;;;4227828;28;20379;-58
2022/10/08 04:32:59;;;;;;;;;;;6.10;99.90;;;;;;4227588;28;19916;-55
2022/10/08 04:35:00;;;;;;;;;;;6.10;99.90;;;;;;4228819;28;19907;-59
2022/10/08 04:37:01;;;;;;;;;;;6.20;99.90;;;;;;4227841;28;19958;-59
2022/10/08 04:39:02;;;;;;;;;;;6.20;99.90;;;;;;4228170;28;19920;-57
2022/10/08 04:41:06;;;;;;;;;;;6.20;99.90;;;;;;4226650;28;19908;-58
2022/10/08 04:43:06;;;;;;;;;;;6.30;99.90;;;;;;4229194;28;19912;-57
2022/10/08 04:45:07;;;;;;;;;;;6.30;99.90;;;;;;4227843;28;19907;-57
2022/10/08 04:47:08;;;;;;;;;;;6.40;99.90;;;;;;4228333;28;20314;-58
2022/10/08 04:49:10;;;;;;;;;;;6.40;99.90;;;;;;4227932;28;19918;-59
2022/10/08 04:51:11;;;;;;;;;;;6.50;99.90;;;;;;4227187;28;19938;-59
2022/10/08 04:53:12;;;;;;;;;;;6.60;99.90;;;;;;4228552;28;20415;-60
2022/10/08 04:55:13;;;;;;;;;;;6.70;99.90;;;;;;4227508;28;20364;-58
2022/10/08 04:57:14;;;;;;;;;;;6.80;99.90;;;;;;4228748;28;20003;-57
2022/10/08 04:59:15;;;;;;;;;;;7.10;99.90;;;;;;4198257;28;19925;-59
2022/10/08 05:01:18;;;;;;;;;;;7.30;99.90;;;;;;4225930;28;19923;-57
2022/10/08 05:03:19;;;;;;;;;;;7.60;99.90;;;;;;4232555;27;19912;-59
2022/10/08 05:05:19;;;;;;;;;;;7.90;99.90;;;;;;4233740;28;19923;-60
2022/10/08 05:07:20;;;;;;;;;;;8.20;99.90;;;;;;4232895;28;19914;-59
2022/10/08 05:09:21;;;;;;;;;;;8.60;99.90;;;;;;4237207;27;19919;-59
2022/10/08 05:11:23;;;;;;;;;;;9.00;99.90;;;;;;4233167;28;20006;-60
2022/10/08 05:13:24;;;;;;;;;;;9.30;99.90;;;;;;4234124;28;20314;-60
2022/10/08 05:15:25;;;;;;;;;;;9.70;99.90;;;;;;4232410;28;19911;-61
2022/10/08 05:17:26;;;;;;;;;;;9.90;99.90;;;;;;4233392;28;19912;-59
2022/10/08 05:19:27;;;;;;;;;;;10.20;99.90;;;;;;4232880;28;20363;-60
2022/10/08 05:21:28;;;;;;;;;;;10.50;99.90;;;;;;4232815;28;19923;-60
2022/10/08 05:23:29;;;;;;;;;;;10.70;99.90;;;;;;4233084;28;19952;-59
2022/10/08 05:25:31;;;;;;;;;;;11.00;99.90;;;;;;4232319;28;19916;-57
2022/10/08 05:27:32;;;;;;;;;;;11.40;99.90;;;;;;4232790;28;20424;-61
2022/10/08 05:29:33;;;;;;;;;;;11.80;99.90;;;;;;4232200;27;20441;-60
2022/10/08 05:31:34;;;;;;;;;;;12.10;99.90;;;;;;4233712;28;19912;-59
2022/10/08 05:33:35;;;;;;;;;;;12.10;99.90;;;;;;4232553;28;19908;-60
2022/10/08 05:35:37;;;;;;;;;;;12.30;99.90;;;;;;4233005;27;20399;-60
2022/10/08 05:37:38;;;;;;;;;;;12.40;99.90;;;;;;4232769;27;20322;-59
2022/10/08 05:39:39;;;;;;;;;;;12.80;99.90;;;;;;4233779;27;19908;-60
2022/10/08 05:41:40;;;;;;;;;;;13.20;99.90;;;;;;4232701;28;19943;-60
2022/10/08 05:43:41;;;;;;;;;;;13.60;99.90;;;;;;4233133;27;19976;-61
2022/10/08 05:45:48;;;;;;;;;;;13.70;99.90;;;;;;4232406;28;20680;-60
2022/10/08 05:47:49;;;;;;;;;;;13.70;99.90;;;;;;4232578;27;19916;-61
2022/10/08 05:49:50;;;;;;;;;;;14.00;99.90;;;;;;4232796;28;19904;-60
2022/10/08 05:51:50;;;;;;;;;;;14.10;99.90;;;;;;4232276;28;19972;-61
2022/10/08 05:53:52;;;;;;;;;;;13.80;99.90;;;;;;4232798;28;20356;-59
2022/10/08 05:56:00;;;;;;;;;;;13.40;99.90;;;;;;4232220;28;19973;-61
2022/10/08 05:58:01;;;;;;;;;;;13.30;99.90;;;;;;4232952;28;19953;-57
2022/10/08 06:00:03;;;;;;;;;;;13.60;99.90;;;;;;4231789;27;20423;-61
2022/10/08 06:02:03;;;;;;;;;;;13.60;99.90;;;;;;4232830;28;20713;-60
2022/10/08 06:04:08;;;;;;;;;;;13.80;99.90;;;;;;4230674;27;19980;-60
2022/10/08 06:06:10;;;;;;;;;;;14.30;99.90;;;;;;4228533;28;19923;-61
2022/10/08 06:08:11;;;;;;;;;;;14.40;99.90;;;;;;4230880;28;19992;-61
2022/10/08 06:10:12;;;;;;;;;;;14.60;99.90;;;;;;4232948;28;20393;-61
2022/10/08 06:12:13;;;;;;;;;;;15.10;99.90;;;;;;4231537;27;20014;-61
2022/10/08 06:14:15;;;;;;;;;;;15.20;99.90;;;;;;4229585;27;19911;-60
2022/10/08 06:16:16;;;;;;;;;;;15.10;99.90;;;;;;4229319;28;20306;-59
2022/10/08 06:18:17;;;;;;;;;;;15.10;99.90;;;;;;4227867;28;19918;-59
2022/10/08 06:20:18;;;;;;;;;;;14.90;99.90;;;;;;4228554;28;20425;-60
2022/10/08 06:22:19;;;;;;;;;;;14.80;99.90;;;;;;4229163;28;19912;-62
2022/10/08 06:24:20;;;;;;;;;;;15.00;99.90;;;;;;4229241;28;20359;-61
2022/10/08 06:26:22;;;;;;;;;;;15.10;99.90;;;;;;4229148;27;19980;-61
2022/10/08 06:28:23;;;;;;;;;;;15.10;99.90;;;;;;4229176;28;20024;-62
2022/10/08 06:30:24;;;;;;;;;;;15.10;99.90;;;;;;4228668;28;20414;-61
2022/10/08 06:32:25;;;;;;;;;;;15.00;99.90;;;;;;4230040;27;19912;-65
2022/10/08 06:34:26;;;;;;;;;;;15.10;99.90;;;;;;4229052;28;19957;-63
2022/10/08 06:36:27;;;;;;;;;;;15.30;99.90;;;;;;4229524;27;20286;-60
2022/10/08 06:38:28;;;;;;;;;;;15.50;99.90;;;;;;4229053;28;20310;-59
2022/10/08 06:40:39;;;;;;;;;;;15.80;99.90;;;;;;4230179;28;19954;-60
2022/10/08 06:42:40;;;;;;;;;;;16.00;99.90;;;;;;4229405;27;19965;-62
2022/10/08 06:44:41;;;;;;;;;;;16.10;99.90;;;;;;4229200;28;19965;-61
2022/10/08 06:46:42;;;;;;;;;;;15.90;99.90;;;;;;4228544;28;19916;-61
2022/10/08 06:48:43;;;;;;;;;;;16.00;99.90;;;;;;4230010;28;19915;-60
2022/10/08 06:50:44;;;;;;;;;;;16.30;99.90;;;;;;4228437;28;19915;-61
2022/10/08 06:52:45;;;;;;;;;;;16.40;99.90;;;;;;4228768;27;19922;-63
2022/10/08 06:54:46;;;;;;;;;;;16.10;99.90;;;;;;4229036;28;19914;-63
2022/10/08 06:56:47;;;;;;;;;;;15.70;99.90;;;;;;4228844;27;19919;-61
2022/10/08 06:58:48;;;;;;;;;;;15.50;99.90;;;;;;4228085;28;19911;-62
2022/10/08 07:00:49;;;;;;;;;;;15.50;99.90;;;;;;4227630;28;20064;-60
2022/10/08 07:02:50;;;;;;;;;;;15.20;99.90;;;;;;4228764;27;20380;-62
2022/10/08 07:04:51;;;;;;;;;;;15.10;99.90;;;;;;4228032;28;19911;-65
2022/10/08 07:06:52;;;;;;;;;;;15.10;99.90;;;;;;4228731;28;19924;-64
2022/10/08 07:08:54;;;;;;;;;;;15.10;99.90;;;;;;4228205;28;19915;-63
2022/10/08 07:10:55;;;;;;;;;;;15.00;99.90;;;;;;4229297;28;19934;-62
2022/10/08 07:12:56;;;;;;;;;;;14.70;99.90;;;;;;4228334;27;19908;-62
2022/10/08 07:14:58;;;;;;;;;;;14.80;99.90;;;;;;4229018;27;20390;-63
2022/10/08 07:16:59;;;;;;;;;;;14.90;99.90;;;;;;4228298;28;19912;-62
2022/10/08 07:19:00;;;;;;;;;;;15.00;99.90;;;;;;4229563;28;19915;-61
2022/10/08 07:21:01;;;;;;;;;;;14.90;99.90;;;;;;4226948;28;19912;-62
2022/10/08 07:23:02;;;;;;;;;;;15.10;99.90;;;;;;4228697;28;20579;-62
2022/10/08 07:25:03;;;;;;;;;;;14.80;99.90;;;;;;4228276;28;19915;-63
2022/10/08 07:27:04;;;;;;;;;;;14.90;99.90;;;;;;4228459;28;20044;-62
2022/10/08 07:29:07;;;;;;;;;;;14.80;99.90;;;;;;4228226;28;19915;-60
2022/10/08 07:31:15;;;;;;;;;;;14.50;99.90;;;;;;4227959;27;19957;-61
2022/10/08 07:33:16;;;;;;;;;;;14.60;99.90;;;;;;4228765;28;19994;-60
2022/10/08 07:35:17;;;;;;;;;;;14.90;99.90;;;;;;4227824;28;19912;-59
2022/10/08 07:37:18;;;;;;;;;;;14.90;99.90;;;;;;4227985;27;19957;-60
2022/10/08 07:39:19;;;;;;;;;;;14.50;99.90;;;;;;4227445;28;20377;-61
2022/10/08 07:41:20;;;;;;;;;;;14.50;99.90;;;;;;4228992;27;19999;-60
2022/10/08 07:43:21;;;;;;;;;;;14.40;99.90;;;;;;4228002;28;19915;-61
2022/10/08 07:45:22;;;;;;;;;;;14.60;99.90;;;;;;4228998;28;19976;-59
2022/10/08 07:47:23;;;;;;;;;;;14.60;99.90;;;;;;4227621;28;19920;-61
2022/10/08 07:49:24;;;;;;;;;;;14.50;99.90;;;;;;4228474;28;19957;-60
2022/10/08 07:51:25;;;;;;;;;;;14.30;99.90;;;;;;4225922;27;20275;-60
2022/10/08 07:53:26;;;;;;;;;;;14.30;99.90;;;;;;4227846;28;19961;-60
2022/10/08 07:55:28;;;;;;;;;;;14.40;99.90;;;;;;4225463;28;19912;-60
2022/10/08 07:57:29;;;;;;;;;;;14.40;99.90;;;;;;4227124;27;19916;-60
2022/10/08 07:59:30;;;;;;;;;;;14.30;99.90;;;;;;4226749;28;19919;-61
2022/10/08 08:01:32;;;;;;;;;;;14.10;99.90;;;;;;4226621;28;19932;-61
2022/10/08 08:03:33;;;;;;;;;;;14.00;99.90;;;;;;4227448;28;20550;-60
2022/10/08 08:05:34;;;;;;;;;;;13.90;99.90;;;;;;4226267;28;19965;-60
2022/10/08 08:07:35;;;;;;;;;;;14.00;99.90;;;;;;4227511;28;19919;-60
2022/10/08 08:09:36;;;;;;;;;;;14.10;99.90;;;;;;4227640;28;20022;-61
2022/10/08 08:11:38;;;;;;;;;;;14.00;99.90;;;;;;4229104;28;19915;-62
2022/10/08 08:13:40;;;;;;;;;;;14.00;99.90;;;;;;4227618;28;19915;-62
2022/10/08 08:15:41;;;;;;;;;;;13.90;99.90;;;;;;4228528;28;20347;-61
2022/10/08 08:17:41;;;;;;;;;;;14.10;99.90;;;;;;4227706;28;19952;-61
2022/10/08 08:19:42;;;;;;;;;;;14.20;99.90;;;;;;4228100;28;19962;-62
2022/10/08 08:21:43;;;;;;;;;;;14.40;99.90;;;;;;4226736;28;19934;-62
2022/10/08 08:23:46;;;;;;;;;;;14.70;99.90;;;;;;4228915;27;19911;-62
2022/10/08 08:25:47;;;;;;;;;;;14.80;99.90;;;;;;4227122;28;19961;-64
2022/10/08 08:27:48;;;;;;;;;;;14.80;99.90;;;;;;4227782;28;19919;-60
2022/10/08 08:29:48;;;;;;;;;;;14.90;99.90;;;;;;4227209;28;19908;-61
2022/10/08 08:31:49;;;;;;;;;;;15.10;99.90;;;;;;4227516;28;19918;-61
2022/10/08 08:33:52;;;;;;;;;;;14.90;99.90;;;;;;4231646;27;19914;-61
2022/10/08 08:35:54;;;;;;;;;;;14.80;99.90;;;;;;4227574;28;19912;-60
2022/10/08 08:37:55;;;;;;;;;;;14.90;99.90;;;;;;4227072;28;19912;-63
2022/10/08 08:39:56;;;;;;;;;;;15.10;99.90;;;;;;4227005;28;20257;-61
2022/10/08 08:41:57;;;;;;;;;;;15.10;99.90;;;;;;4229009;28;19953;-61
2022/10/08 08:43:59;;;;;;;;;;;15.20;99.90;;;;;;4227443;28;19914;-62
2022/10/08 08:46:01;;;;;;;;;;;15.40;99.90;;;;;;4228013;28;20446;-61
2022/10/08 08:48:11;;;;;;;;;;;15.40;99.90;;;;;;4226021;28;19915;-60
2022/10/08 08:50:22;;;;;;;;;;;15.40;99.90;;;;;;4228413;28;20321;-64
2022/10/08 08:52:25;;;;;;;;;;;15.50;99.90;;;;;;4226795;28;19908;-62
2022/10/08 08:54:26;;;;;;;;;;;15.40;99.90;;;;;;4228692;28;19965;-61
2022/10/08 08:56:27;;;;;;;;;;;15.30;99.90;;;;;;4227239;28;19959;-60
2022/10/08 08:58:43;;;;;;;;;;;15.30;99.90;;;;;;4228265;28;19969;-61
2022/10/08 09:00:46;;;;;;;;;;;15.40;99.90;;;;;;4225634;28;20382;-60
2022/10/08 09:02:49;;;;;;;;;;;15.50;99.90;;;;;;4227084;28;19919;-62
2022/10/08 09:04:55;;;;;;;;;;;15.60;99.90;;;;;;4227118;28;19911;-62
2022/10/08 09:06:57;;;;;;;;;;;15.80;99.90;;;;;;4227854;28;19915;-60
2022/10/08 09:09:18;;;;;;;;;;;15.90;99.90;;;;;;4226170;28;19965;-60
2022/10/08 09:11:20;;;;;;;;;;;16.00;99.90;;;;;;4227455;28;19916;-61
2022/10/08 09:13:40;;;;;;;;;;;16.20;99.90;;;;;;4227693;28;19904;-63
2022/10/08 09:15:41;;;;;;;;;;;16.10;99.90;;;;;;4228206;28;19953;-60
2022/10/08 09:17:43;;;;;;;;;;;16.20;99.90;;;;;;4226979;28;20368;-60
2022/10/08 09:19:46;;;;;;;;;;;16.20;99.90;;;;;;4227172;28;19920;-62
2022/10/08 09:21:47;;;;;;;;;;;16.30;99.90;;;;;;4226480;28;19920;-61
2022/10/08 09:23:47;;;;;;;;;;;16.60;99.90;;;;;;4227772;28;20265;-61
2022/10/08 09:26:12;;;;;;;;;;;16.60;99.90;;;;;;4227470;28;19952;-61
2022/10/08 09:28:33;;;;;;;;;;;16.80;99.90;;;;;;4208504;28;19912;-62
2022/10/08 09:30:38;;;;;;;;;;;16.90;99.90;;;;;;4226582;28;19916;-63
2022/10/08 09:32:39;;;;;;;;;;;17.00;99.90;;;;;;4227824;28;19974;-65
2022/10/08 09:34:40;;;;;;;;;;;17.00;99.90;;;;;;4227138;28;19919;-62
2022/10/08 09:36:43;;;;;;;;;;;17.10;99.90;;;;;;4227366;28;19981;-61
2022/10/08 09:38:44;;;;;;;;;;;17.20;99.90;;;;;;4227643;28;19908;-64
2022/10/08 09:40:58;;;;;;;;;;;17.30;99.90;;;;;;4226252;28;20441;-62
2022/10/08 09:43:17;;;;;;;;;;;17.30;99.90;;;;;;4227198;28;19916;-64
2022/10/08 09:45:32;;;;;;;;;;;17.30;99.90;;;;;;4227084;28;20015;-65
2022/10/08 09:47:33;;;;;;;;;;;17.30;99.90;;;;;;4227354;28;19965;-65
2022/10/08 09:49:36;;;;;;;;;;;17.30;99.90;;;;;;4227612;28;20283;-66
2022/10/08 09:51:40;;;;;;;;;;;17.40;99.90;;;;;;4230494;28;19957;-63
2022/10/08 09:53:43;;;;;;;;;;;17.40;99.90;;;;;;4229858;28;19915;-65
2022/10/08 09:55:55;;;;;;;;;;;17.50;99.90;;;;;;4231071;28;19908;-65
2022/10/08 09:57:59;;;;;;;;;;;17.40;99.90;;;;;;4229983;28;20008;-63
2022/10/08 10:00:00;;;;;;;;;;;17.40;99.90;;;;;;4230586;28;20430;-61
2022/10/08 10:02:06;;;;;;;;;;;17.40;99.90;;;;;;4229365;28;19912;-62
2022/10/08 10:04:15;;;;;;;;;;;17.40;99.90;;;;;;4229297;28;20019;-65
2022/10/08 10:06:23;;;;;;;;;;;17.50;99.90;;;;;;4228393;28;19919;-62
2022/10/08 10:08:45;;;;;;;;;;;17.50;99.90;;;;;;4231077;28;19937;-63
2022/10/08 10:10:47;;;;;;;;;;;17.60;99.90;;;;;;4229620;28;19916;-61
2022/10/08 10:12:51;;;;;;;;;;;17.60;99.90;;;;;;4231340;28;19919;-61
2022/10/08 10:15:00;;;;;;;;;;;17.60;99.90;;;;;;4229702;28;20004;-63
2022/10/08 10:17:04;;;;;;;;;;;17.60;99.90;;;;;;4230651;28;19912;-60
2022/10/08 10:19:08;;;;;;;;;;;17.70;99.90;;;;;;4229628;28;19915;-63
2022/10/08 10:21:13;;;;;;;;;;;17.80;99.90;;;;;;4229320;27;19912;-61
2022/10/08 10:23:15;;;;;;;;;;;17.70;99.90;;;;;;4229420;28;19938;-62
2022/10/08 10:25:23;;;;;;;;;;;17.90;99.90;;;;;;4230665;28;19912;-62
2022/10/08 10:27:30;;;;;;;;;;;17.90;99.90;;;;;;4229345;28;19924;-62
2022/10/08 10:29:42;;;;;;;;;;;17.90;99.90;;;;;;4230144;27;19911;-63
2022/10/08 10:31:47;;;;;;;;;;;18.00;99.90;;;;;;4226530;27;19912;-62
2022/10/08 10:33:54;;;;;;;;;;;18.00;99.90;;;;;;4230233;28;19916;-62
2022/10/08 10:35:56;;;;;;;;;;;18.00;99.90;;;;;;4228358;27;20320;-61
2022/10/08 10:38:02;;;;;;;;;;;18.10;99.90;;;;;;4229580;28;19977;-62
2022/10/08 10:40:15;;;;;;;;;;;18.10;99.90;;;;;;4228733;27;19912;-62
2022/10/08 10:42:18;;;;;;;;;;;18.20;99.90;;;;;;4228647;27;20264;-62
2022/10/08 10:44:27;;;;;;;;;;;18.30;99.90;;;;;;4227854;28;19916;-62
2022/10/08 10:46:43;;;;;;;;;;;18.30;99.90;;;;;;4229534;28;19920;-60
2022/10/08 10:48:44;;;;;;;;;;;18.30;99.90;;;;;;4229057;28;20326;-61
2022/10/08 10:51:03;;;;;;;;;;;18.40;99.90;;;;;;4229860;28;20002;-62
2022/10/08 10:53:10;;;;;;;;;;;18.40;99.90;;;;;;4228928;27;19920;-62
2022/10/08 10:55:11;;;;;;;;;;;18.40;99.90;;;;;;4229781;28;19916;-61
2022/10/08 10:57:21;;;;;;;;;;;18.40;99.90;;;;;;4229051;28;19951;-64
2022/10/08 10:59:36;;;;;;;;;;;18.40;99.90;;;;;;4229821;28;19907;-67
2022/10/08 11:01:47;;;;;;;;;;;18.50;99.90;;;;;;4228208;28;20359;-59
2022/10/08 11:03:52;;;;;;;;;;;18.50;99.90;;;;;;4228275;28;20497;-61
2022/10/08 11:06:02;;;;;;;;;;;18.60;99.90;;;;;;4228860;28;19915;-61
2022/10/08 11:08:11;;;;;;;;;;;18.80;99.90;;;;;;4229183;28;19915;-61
2022/10/08 11:10:24;;;;;;;;;;;18.80;99.90;;;;;;4228378;28;20454;-59
2022/10/08 11:12:44;;;;;;;;;;;18.80;99.90;;;;;;4229203;28;19960;-61
2022/10/08 11:14:56;;;;;;;;;;;18.80;99.90;;;;;;4212168;28;19942;-61
2022/10/08 11:17:20;;;;;;;;;;;18.90;99.90;;;;;;4214352;28;20388;-61
2022/10/08 11:19:21;;;;;;;;;;;18.90;99.90;;;;;;4202932;28;19916;-61
2022/10/08 11:21:31;;;;;;;;;;;18.90;99.90;;;;;;4229489;28;19949;-61
2022/10/08 11:23:53;;;;;;;;;;;18.90;99.90;;;;;;4228422;28;19911;-60
2022/10/08 11:25:57;;;;;;;;;;;18.90;99.90;;;;;;4229096;28;19908;-60
2022/10/08 11:28:24;;;;;;;;;;;18.90;99.90;;;;;;4227629;28;19969;-60
2022/10/08 11:30:31;;;;;;;;;;;18.90;99.90;;;;;;4226580;28;19977;-60
2022/10/08 11:32:32;;;;;;;;;;;18.90;99.90;;;;;;4226860;27;19907;-61
2022/10/08 11:34:35;;;;;;;;;;;19.00;99.90;;;;;;4229659;28;19965;-60
2022/10/08 11:36:39;;;;;;;;;;;19.00;99.90;;;;;;4228524;28;19938;-60
2022/10/08 11:38:48;;;;;;;;;;;19.10;99.90;;;;;;4229704;28;19907;-61
2022/10/08 11:40:49;;;;;;;;;;;19.10;99.90;;;;;;4228217;28;19964;-62
2022/10/08 11:43:01;;;;;;;;;;;19.20;99.90;;;;;;4229630;28;20359;-62
2022/10/08 11:45:27;;;;;;;;;;;19.20;99.90;;;;;;4228359;28;19919;-61
2022/10/08 11:47:40;;;;;;;;;;;19.20;99.90;;;;;;4229552;28;19985;-61
2022/10/08 11:49:48;;;;;;;;;;;19.20;99.90;;;;;;4228388;28;20024;-62
2022/10/08 11:51:50;;;;;;;;;;;19.30;99.90;;;;;;4228638;28;19954;-60
2022/10/08 11:53:57;;;;;;;;;;;19.30;99.90;;;;;;4227634;28;19919;-61
2022/10/08 11:55:58;;;;;;;;;;;19.40;99.90;;;;;;4228624;28;19960;-61
2022/10/08 11:58:00;;;;;;;;;;;19.40;99.90;;;;;;4226694;27;19915;-69
2022/10/08 12:00:28;;;;;;;;;;;19.40;99.90;;;;;;4226589;27;20752;-60
2022/10/08 12:02:30;;;;;;;;;;;19.40;99.90;;;;;;4196462;28;19916;-62
2022/10/08 12:04:33;;;;;;;;;;;19.40;99.90;;;;;;4229043;28;19916;-61
2022/10/08 12:06:34;;;;;;;;;;;19.50;99.90;;;;;;4241487;27;19937;-62